Utah State University
, Logan
Last Weather Update:10/30/2011 11:00:00 PM
Date
ETo
ETc
Rain
Irrigation
Req
Temp
Max
Temp
Min
Temp
Avg
Avg RH
Avg Wind
Avg Solar
inches
inches
incehs
inches
F
F
F
%
%
watts/m2
9/1/2011 0.18" 0.12" 0.00" 0.12" 81.4° 54.2° 66.0° 33.2% 2.3 MPH 273.9w/m2
9/2/2011 0.18" 0.12" 0.00" 0.12" 79.9° 49.9° 63.3° 33.7% 3.0 MPH 283.7w/m2
9/3/2011 0.19" 0.13" 0.00" 0.13" 82.2° 49.6° 64.2° 30.0% 4.2 MPH 281.1w/m2
9/4/2011 0.20" 0.13" 0.00" 0.13" 85.5° 53.4° 67.2° 28.4% 3.7 MPH 281.2w/m2
9/5/2011 0.12" 0.08" 0.00" 0.08" 76.8° 57.2° 65.8° 34.9% 4.4 MPH 109.9w/m2
9/6/2011 0.18" 0.12" 0.03" 0.10" 81.2° 57.6° 67.7° 51.6% 3.7 MPH 236.9w/m2
9/7/2011 0.19" 0.13" 0.00" 0.13" 83.5° 55.3° 67.7° 42.7% 4.3 MPH 256.5w/m2
9/8/2011 0.18" 0.12" 0.00" 0.12" 83.2° 57.5° 70.0° 34.8% 3.1 MPH 262.4w/m2
9/9/2011 0.20" 0.13" 0.00" 0.13" 84.1° 60.5° 72.3° 27.0% 3.5 MPH 259.9w/m2
9/10/2011 0.17" 0.11" 0.00" 0.11" 82.1° 60.5° 71.4° 27.0% 4.0 MPH 186.0w/m2
9/11/2011 0.18" 0.12" 0.00" 0.12" 78.8° 55.9° 67.1° 40.7% 3.9 MPH 230.8w/m2
9/12/2011 0.16" 0.10" 0.00" 0.10" 77.3° 55.0° 65.3° 47.9% 3.2 MPH 225.2w/m2
9/13/2011 0.16" 0.11" 0.00" 0.11" 79.7° 51.5° 64.4° 46.0% 3.6 MPH 251.3w/m2
9/14/2011 0.17" 0.11" 0.00" 0.11" 81.4° 54.4° 65.8° 44.4% 4.0 MPH 231.8w/m2
9/15/2011 0.16" 0.10" 0.00" 0.10" 78.4° 51.3° 64.1° 49.9% 4.2 MPH 241.3w/m2
9/16/2011 0.10" 0.06" 0.15" -0.06" 70.3° 51.7° 59.6° 60.0% 3.8 MPH 130.3w/m2
9/17/2011 0.08" 0.05" 0.32" -0.20" 64.3° 50.1° 54.9° 76.4% 2.9 MPH 120.7w/m2
9/18/2011 0.15" 0.10" 0.00" 0.10" 73.1° 45.3° 58.1° 56.1% 4.3 MPH 238.3w/m2
9/19/2011 0.16" 0.10" 0.00" 0.10" 77.4° 48.1° 61.7° 45.5% 4.7 MPH 238.5w/m2
9/20/2011 0.14" 0.09" 0.00" 0.09" 74.5° 49.2° 61.3° 44.4% 2.7 MPH 236.0w/m2
9/21/2011 0.15" 0.09" 0.00" 0.09" 76.9° 47.9° 60.8° 45.7% 4.1 MPH 237.4w/m2
9/22/2011 0.16" 0.10" 0.00" 0.10" 79.9° 48.8° 62.2° 43.7% 4.7 MPH 235.9w/m2
9/23/2011 0.16" 0.10" 0.00" 0.10" 82.1° 50.3° 63.9° 40.1% 5.0 MPH 235.6w/m2
9/24/2011 0.16" 0.10" 0.00" 0.10" 82.5° 51.6° 64.5° 36.0% 4.8 MPH 225.7w/m2
9/25/2011 0.17" 0.10" 0.00" 0.10" 82.5° 52.0° 65.0° 32.5% 5.5 MPH 229.3w/m2
9/26/2011 0.15" 0.09" 0.00" 0.09" 79.9° 54.7° 65.7° 35.7% 3.3 MPH 215.6w/m2
9/27/2011 0.16" 0.10" 0.00" 0.10" 81.8° 51.9° 64.6° 39.4% 4.6 MPH 221.7w/m2
9/28/2011 0.16" 0.09" 0.00" 0.09" 83.2° 53.0° 65.8° 37.8% 4.5 MPH 218.5w/m2
9/29/2011 0.15" 0.09" 0.00" 0.09" 84.0° 53.5° 65.9° 37.2% 4.2 MPH 219.3w/m2
9/30/2011 0.16" 0.10" 0.00" 0.10" 87.0° 55.7° 68.2° 33.1% 4.9 MPH 214.0w/m2
Totals: 4.79" 3.12" 0.50" 2.72" 87.0° 45.3° 64.8° 41.2% 4.0 MPH 227.6w/m2